Time;durP1;ratioP1;P1;durP2;ratioP2;P2;SDS_P1;SDS_P2;PMS_P1;PMS_P2;Temp;Humidity;BMP_temperature;BMP_pressure;BME280_temperature;BME280_humidity;BME280_pressure;Samples;Min_cycle;Max_cycle;Signal;HPM_P1;HPM_P2
2022/04/19 05:32:31;;;;;;;9.68;4.65;;;;;;;7.52;62.75;98052.88;5109110;27;20359;-62
2022/04/19 05:34:56;;;;;;;13.85;6.03;;;;;;;7.56;62.80;98050.84;5074324;28;20036;-60
2022/04/19 05:37:22;;;;;;;28.33;6.60;;;;;;;7.41;62.44;97998.69;5074966;28;20432;-61
2022/04/19 05:39:47;;;;;;;25.60;5.55;;;;;;;7.63;62.83;98023.41;5070665;28;20039;-61
2022/04/19 05:42:13;;;;;;;22.58;6.20;;;;;;;7.85;63.25;98048.97;4985266;28;20526;-61
2022/04/19 05:44:38;;;;;;;21.08;5.90;;;;;;;7.86;62.98;98035.06;5068864;28;20037;-59
2022/04/19 05:47:04;;;;;;;38.95;7.30;;;;;;;7.87;62.16;98041.88;5066660;28;20593;-61
2022/04/19 05:49:29;;;;;;;17.27;6.32;;;;;;;7.83;62.95;98039.72;5075231;28;20444;-59
2022/04/19 05:51:55;;;;;;;12.38;6.00;;;;;;;8.05;62.93;98041.97;5052562;28;20031;-64
2022/04/19 05:54:20;;;;;;;13.50;6.07;;;;;;;8.09;62.08;98026.97;5068245;28;20032;-58
2022/04/19 05:56:46;;;;;;;11.18;5.07;;;;;;;8.07;62.29;98037.47;5066444;28;20091;-61
2022/04/19 05:59:11;;;;;;;12.43;5.95;;;;;;;7.91;61.04;98001.00;5071898;28;20227;-60
2022/04/19 06:07:05;;;;;;;13.77;5.97;;;;;;;8.28;62.22;98032.03;5064070;28;20151;-62
2022/04/19 06:09:30;;;;;;;15.75;6.93;;;;;;;8.22;62.46;98024.84;5071305;28;20024;-60
2022/04/19 06:11:55;;;;;;;15.02;6.53;;;;;;;8.26;62.54;98022.78;5064039;28;20032;-61
2022/04/19 06:14:21;;;;;;;15.93;6.97;;;;;;;7.97;62.38;97976.31;5085782;28;20130;-60
2022/04/19 06:16:46;;;;;;;24.38;7.22;;;;;;;8.24;61.71;98017.75;5068089;28;20621;-63
2022/04/19 06:19:12;;;;;;;14.05;5.80;;;;;;;8.34;62.37;98027.22;5072073;28;20025;-61
2022/04/19 06:21:37;;;;;;;13.60;5.60;;;;;;;8.31;63.03;98012.81;5070658;28;20036;-61
2022/04/19 06:24:04;;;;;;;11.40;6.00;;;;;;;8.33;62.44;98004.91;5067171;28;20031;-61
2022/04/19 06:26:29;;;;;;;19.80;6.10;;;;;;;8.16;62.55;97973.63;5062367;28;20144;-61
2022/04/19 06:28:55;;;;;;;10.30;5.90;;;;;;;8.36;62.41;97995.06;5059692;28;20044;-61
2022/04/19 06:31:21;;;;;;;8.77;5.88;;;;;;;8.50;63.43;98014.50;5064817;28;20094;-61
2022/04/19 06:33:46;;;;;;;13.88;7.38;;;;;;;8.50;62.82;98013.69;5069480;28;20032;-61
2022/04/19 06:36:12;;;;;;;10.73;5.38;;;;;;;8.28;62.38;97959.50;5048729;28;20695;-62
2022/04/19 06:38:37;;;;;;;9.15;5.80;;;;;;;8.60;62.86;97997.13;5082095;28;20483;-62
2022/04/19 06:41:02;;;;;;;12.85;5.90;;;;;;;8.64;63.82;98001.03;5065956;28;20112;-61
2022/04/19 06:43:31;;;;;;;14.10;6.50;;;;;;;8.63;63.30;97996.81;5059157;28;20028;-60
2022/04/19 06:45:56;;;;;;;16.73;6.63;;;;;;;8.64;63.69;98006.22;5037004;28;20581;-58
2022/04/19 06:48:22;;;;;;;10.65;6.05;;;;;;;8.70;64.00;97996.22;5047916;28;20036;-60
2022/04/19 06:50:47;;;;;;;15.35;6.43;;;;;;;8.41;63.30;97943.59;5049737;28;20047;-65
2022/04/19 06:53:13;;;;;;;12.23;6.57;;;;;;;8.70;64.09;97991.84;5071210;28;20123;-60
2022/04/19 06:55:38;;;;;;;11.82;6.47;;;;;;;8.65;63.51;97989.72;5012552;28;20084;-61
2022/04/19 06:58:04;;;;;;;15.18;6.40;;;;;;;8.59;63.30;97979.91;5059020;28;20036;-61
2022/04/19 07:00:29;;;;;;;10.85;6.18;;;;;;;8.71;63.42;97993.50;5052906;28;20113;-60
2022/04/19 07:02:55;;;;;;;16.35;7.57;;;;;;;8.74;63.70;97998.34;5055887;28;20029;-60
2022/04/19 07:05:20;;;;;;;14.52;6.63;;;;;;;8.65;63.24;97994.91;5057259;28;20040;-61
2022/04/19 07:07:46;;;;;;;18.38;7.13;;;;;;;8.66;62.91;97988.75;5041955;28;20028;-59
2022/04/19 07:10:12;;;;;;;23.92;8.05;;;;;;;8.70;62.93;97994.44;5060213;28;20111;-61
2022/04/19 07:12:38;;;;;;;23.50;8.10;;;;;;;8.69;63.24;97992.00;5058938;28;20033;-60
2022/04/19 07:15:04;;;;;;;20.95;8.63;;;;;;;8.31;63.23;97948.06;5060005;28;20020;-60
2022/04/19 07:17:30;;;;;;;18.33;7.53;;;;;;;8.56;63.74;97988.00;5057586;28;20562;-61
2022/04/19 07:28:11;;;;;;;12.98;6.70;;;;;;;8.79;64.13;97987.56;5061054;28;20078;-59
2022/04/19 07:30:37;;;;;;;15.02;7.03;;;;;;;8.81;63.96;97976.06;5057984;28;20450;-60
2022/04/19 07:33:04;;;;;;;15.52;6.60;;;;;;;8.87;63.73;97976.44;5061685;28;20029;-59
2022/04/19 07:35:29;;;;;;;11.73;6.88;;;;;;;8.87;63.96;97969.50;5045346;28;20044;-60
2022/04/19 07:37:55;;;;;;;18.55;6.30;;;;;;;8.89;64.07;97954.59;5052994;28;20024;-59
2022/04/19 07:40:21;;;;;;;12.93;6.93;;;;;;;8.94;63.89;97954.94;5062811;28;20033;-60
2022/04/19 07:42:46;;;;;;;20.50;8.95;;;;;;;8.73;64.51;97957.06;5041950;28;20032;-61
2022/04/19 07:45:12;;;;;;;16.23;7.55;;;;;;;8.78;64.12;97947.03;5061365;28;20032;-60
2022/04/19 07:47:37;;;;;;;18.60;7.32;;;;;;;8.56;65.15;97909.44;5043074;28;20101;-59
2022/04/19 07:50:03;;;;;;;17.40;7.40;;;;;;;8.91;62.59;97949.25;5059103;28;20063;-61
2022/04/19 07:52:28;;;;;;;16.88;6.53;;;;;;;8.67;61.94;97893.69;5045685;28;20382;-59
2022/04/19 07:54:54;;;;;;;13.90;5.82;;;;;;;9.13;59.87;97938.41;5056926;28;20460;-62
2022/04/19 07:57:20;;;;;;;19.05;6.90;;;;;;;9.14;62.60;97940.00;5058643;28;20136;-59
2022/04/19 07:59:46;;;;;;;13.05;6.78;;;;;;;9.22;63.01;97947.88;5062962;28;20028;-59
2022/04/19 08:02:11;;;;;;;15.85;6.70;;;;;;;9.22;62.71;97937.50;5061728;28;20093;-60
2022/04/19 08:04:37;;;;;;;16.27;6.68;;;;;;;9.26;62.63;97935.41;5041405;28;20035;-60
2022/04/19 08:07:02;;;;;;;15.40;7.05;;;;;;;9.31;63.01;97943.56;5059972;28;20028;-60
2022/04/19 08:09:28;;;;;;;11.10;6.82;;;;;;;9.36;62.07;97938.72;5056838;28;20091;-60
2022/04/19 08:11:53;;;;;;;13.07;6.30;;;;;;;9.34;61.37;97932.84;5064327;28;20120;-59
2022/04/19 08:14:19;;;;;;;14.52;6.13;;;;;;;9.34;62.12;97935.44;5045250;28;20017;-60
2022/04/19 08:16:44;;;;;;;12.95;6.03;;;;;;;9.31;61.99;97927.16;5058747;28;20088;-61
2022/04/19 08:19:10;;;;;;;11.00;5.65;;;;;;;9.06;60.42;97876.94;5062083;28;20024;-60
2022/04/19 08:21:35;;;;;;;9.52;5.53;;;;;;;9.40;59.67;97921.88;5059949;28;20039;-62
2022/04/19 08:24:01;;;;;;;10.95;6.10;;;;;;;9.78;57.68;97913.75;5060509;28;20143;-59
2022/04/19 08:26:26;;;;;;;11.13;6.30;;;;;;;11.29;52.97;97898.78;5060164;28;20098;-60
2022/04/19 08:28:51;;;;;;;10.20;6.18;;;;;;;13.07;49.49;97898.91;5057806;28;20775;-60
2022/04/19 08:31:17;;;;;;;11.40;5.72;;;;;;;14.43;43.92;97888.09;5044565;28;20729;-60
2022/04/19 08:33:42;;;;;;;8.25;5.28;;;;;;;15.69;40.92;97890.00;5061689;28;20025;-59
2022/04/19 08:36:08;;;;;;;10.25;5.53;;;;;;;16.41;39.31;97879.97;5043862;28;20116;-63
2022/04/19 08:38:33;;;;;;;8.75;5.18;;;;;;;17.17;36.86;97886.66;5041272;28;20108;-60
2022/04/19 08:41:00;;;;;;;8.80;4.82;;;;;;;17.44;34.87;97885.59;5060754;28;20031;-59
2022/04/19 08:43:25;;;;;;;9.52;4.78;;;;;;;17.92;34.00;97883.63;5053483;28;20036;-61
2022/04/19 08:45:51;;;;;;;8.43;5.00;;;;;;;18.28;33.21;97877.75;5041445;28;20024;-60
2022/04/19 08:48:18;;;;;;;8.40;5.05;;;;;;;18.34;31.42;97873.47;5061100;28;20028;-61
2022/04/19 08:50:46;;;;;;;8.65;4.57;;;;;;;18.33;32.35;97827.94;5063187;28;20538;-62
2022/04/19 08:58:55;;;;;;;10.32;5.25;;;;;;;16.73;35.28;97855.56;5042275;28;20682;-60
2022/04/19 09:01:20;;;;;;;10.73;5.40;;;;;;;15.24;36.93;97864.22;5042993;28;20031;-61
2022/04/19 09:03:48;;;;;;;9.82;5.28;;;;;;;14.66;37.63;97858.34;5057849;28;20017;-61
2022/04/19 09:06:13;;;;;;;8.77;5.57;;;;;;;14.35;38.30;97864.72;5060180;28;20063;-60
2022/04/19 09:08:38;;;;;;;10.45;5.72;;;;;;;13.96;39.26;97855.44;5058882;28;20131;-60
2022/04/19 09:11:05;;;;;;;7.85;4.93;;;;;;;13.46;39.19;97860.50;5059719;28;20811;-59
2022/04/19 09:13:31;;;;;;;10.18;5.13;;;;;;;13.35;41.35;97812.16;5055238;28;20035;-59
2022/04/19 09:16:06;;;;;;;10.15;5.35;;;;;;;13.56;40.84;97841.94;5066432;28;20024;-60
2022/04/19 09:18:34;;;;;;;9.95;4.97;;;;;;;13.48;40.88;97847.28;5060469;28;20048;-61
2022/04/19 09:21:01;;;;;;;9.13;4.82;;;;;;;13.56;40.77;97832.31;5060238;28;20024;-59
2022/04/19 09:23:31;;;;;;;10.32;5.43;;;;;;;13.50;40.59;97833.03;5043420;28;20128;-61
2022/04/19 09:26:09;;;;;;;7.95;5.13;;;;;;;13.38;40.16;97831.84;5058811;28;20727;-59
2022/04/19 09:28:35;;;;;;;9.55;5.07;;;;;;;13.42;42.16;97820.88;5059779;28;20060;-59
2022/04/19 09:31:03;;;;;;;13.38;7.13;;;;;;;13.69;42.88;97820.38;5054612;28;20112;-61
2022/04/19 09:33:30;;;;;;;9.10;4.90;;;;;;;13.50;42.82;97793.06;5057834;28;20044;-59
2022/04/19 09:35:57;;;;;;;9.25;4.72;;;;;;;13.82;43.48;97818.72;5059351;28;20453;-59
2022/04/19 09:38:50;;;;;;;9.35;4.85;;;;;;;13.89;43.33;97803.13;5059581;28;20135;-59
2022/04/19 09:41:17;;;;;;;7.80;4.68;;;;;;;13.86;41.16;97800.88;5051888;28;20846;-60
2022/04/19 09:43:43;;;;;;;10.40;5.00;;;;;;;14.14;37.07;97793.09;5042705;28;20028;-63
2022/04/19 09:46:08;;;;;;;9.98;5.03;;;;;;;14.23;37.75;97783.34;5052991;28;20028;-59
2022/04/19 09:48:41;;;;;;;9.18;4.68;;;;;;;14.28;37.49;97780.97;5062066;28;20372;-61
2022/04/19 09:51:08;;;;;;;8.80;4.47;;;;;;;14.09;36.54;97756.28;5067031;28;20071;-62
2022/04/19 09:53:45;;;;;;;8.10;4.60;;;;;;;14.57;37.16;97787.03;5058924;28;20059;-60
2022/04/19 09:56:15;;;;;;;8.05;4.75;;;;;;;14.56;36.64;97773.13;5046823;28;20028;-62
2022/04/19 09:58:44;;;;;;;9.95;5.38;;;;;;;14.64;36.29;97774.00;5045786;28;20378;-62
2022/04/19 10:08:10;;;;;;;8.80;4.78;;;;;;;14.55;36.42;97765.50;5059696;28;20597;-61
2022/04/19 10:09:24;;;;;;;9.07;5.22;;;;;;;15.56;33.72;97754.53;5059968;28;20048;-59
2022/04/19 10:11:51;;;;;;;11.00;5.18;;;;;;;15.37;34.87;97753.47;5041608;28;20052;-60
2022/04/19 10:14:18;;;;;;;10.25;4.70;;;;;;;15.24;35.03;97758.63;5060189;28;20422;-60
2022/04/19 10:16:45;;;;;;;9.38;5.45;;;;;;;15.35;34.02;97744.97;5040635;28;20490;-61
2022/04/19 10:19:10;;;;;;;9.82;5.13;;;;;;;15.20;35.38;97750.34;5057379;28;20028;-61
2022/04/19 10:21:41;;;;;;;9.15;5.40;;;;;;;14.91;34.90;97706.94;5067575;28;20565;-60
2022/04/19 10:24:14;;;;;;;13.55;4.57;;;;;;;15.15;35.02;97739.66;5062941;28;20078;-61
2022/04/19 10:26:48;;;;;;;8.80;5.60;;;;;;;15.14;35.34;97738.06;5054782;28;20020;-62
2022/04/19 10:29:17;;;;;;;8.38;4.90;;;;;;;15.00;34.30;97684.81;5062057;28;20119;-59
2022/04/19 10:32:03;;;;;;;8.05;5.05;;;;;;;15.46;33.86;97720.03;5071162;28;20020;-60
2022/04/19 10:34:31;;;;;;;11.40;5.75;;;;;;;15.66;34.22;97725.31;5063092;28;20056;-61
2022/04/19 10:37:18;;;;;;;9.95;5.30;;;;;;;15.48;34.78;97710.97;5061707;28;20030;-62
2022/04/19 10:39:48;;;;;;;10.30;4.95;;;;;;;15.51;34.23;97720.25;5063243;28;20036;-58
2022/04/19 10:42:32;;;;;;;10.80;5.40;;;;;;;15.62;34.56;97719.66;5062005;28;20387;-61
2022/04/19 10:45:13;;;;;;;9.27;5.57;;;;;;;15.70;34.38;97716.88;5068513;28;20542;-61
2022/04/19 10:47:53;;;;;;;10.73;5.82;;;;;;;15.61;34.87;97719.88;5079322;28;20086;-59
2022/04/19 10:50:29;;;;;;;11.90;6.28;;;;;;;15.89;34.20;97715.28;5053366;28;20038;-60
2022/04/19 10:53:04;;;;;;;12.18;5.88;;;;;;;16.11;33.48;97709.88;5064544;28;20308;-60
2022/04/19 10:55:32;;;;;;;11.48;6.22;;;;;;;16.11;33.84;97715.09;5062356;28;20059;-59
2022/04/19 10:58:08;;;;;;;10.73;6.40;;;;;;;16.04;34.88;97709.84;5044849;28;20039;-60
2022/04/19 11:00:38;;;;;;;11.10;6.90;;;;;;;16.24;33.13;97706.44;5063790;28;20599;-60
2022/04/19 11:03:06;;;;;;;12.13;6.57;;;;;;;16.17;34.73;97693.31;5061804;28;20025;-60
2022/04/19 11:05:51;;;;;;;11.30;6.38;;;;;;;16.10;34.61;97698.56;5061674;28;20107;-62
2022/04/19 11:08:26;;;;;;;11.38;6.80;;;;;;;15.80;34.67;97639.69;5058229;28;20024;-62
2022/04/19 11:10:58;;;;;;;12.00;7.20;;;;;;;16.17;34.87;97689.88;5061387;28;20039;-60
2022/04/19 11:13:44;;;;;;;11.25;6.88;;;;;;;16.25;34.72;97693.13;5064326;28;20410;-60
2022/04/19 11:16:13;;;;;;;10.23;7.05;;;;;;;16.38;34.35;97676.56;5060293;28;20491;-61
2022/04/19 11:18:41;;;;;;;11.32;6.95;;;;;;;16.48;33.78;97682.19;5064313;28;20028;-60
2022/04/19 11:21:13;;;;;;;12.80;6.20;;;;;;;16.46;33.68;97683.38;5064212;28;20082;-60
2022/04/19 11:23:42;;;;;;;11.98;7.22;;;;;;;16.57;32.54;97674.88;5070243;28;20032;-59
2022/04/19 11:26:30;;;;;;;10.13;6.75;;;;;;;16.79;32.66;97669.38;5063190;28;20032;-59
2022/04/19 11:29:08;;;;;;;10.15;6.28;;;;;;;16.70;33.40;97666.16;5058799;28;20142;-61
2022/04/19 11:31:33;;;;;;;10.90;7.05;;;;;;;16.71;32.08;97660.72;5064780;28;20032;-60
2022/04/19 11:33:59;;;;;;;10.98;7.03;;;;;;;17.07;32.09;97643.63;5060829;28;20036;-61
2022/04/19 11:36:24;;;;;;;11.07;6.88;;;;;;;16.97;33.39;97648.53;5060531;28;20017;-59
2022/04/19 11:38:50;;;;;;;11.73;6.95;;;;;;;16.85;32.85;97655.47;5061995;28;20311;-59
2022/04/19 11:46:56;;;;;;;12.50;6.88;;;;;;;17.08;32.86;97633.94;5060027;28;20461;-61
2022/04/19 11:49:22;;;;;;;15.00;7.80;;;;;;;17.27;31.49;97640.09;5062482;28;20037;-59
2022/04/19 11:51:49;;;;;;;11.60;7.10;;;;;;;17.35;32.89;97626.72;5059499;28;20028;-59
2022/04/19 11:54:25;;;;;;;12.55;7.63;;;;;;;17.27;32.53;97627.78;5056949;28;20772;-59
2022/04/19 11:56:55;;;;;;;11.95;7.40;;;;;;;16.97;32.72;97614.38;5043961;28;20125;-60
2022/04/19 11:59:28;;;;;;;11.57;6.63;;;;;;;17.12;32.59;97605.44;5059968;28;20028;-60
2022/04/19 12:01:54;;;;;;;10.98;6.55;;;;;;;17.36;32.60;97609.94;5065050;28;20020;-59
2022/04/19 12:04:19;;;;;;;9.55;6.78;;;;;;;17.18;30.45;97567.84;5059705;28;20357;-60
2022/04/19 12:06:52;;;;;;;10.52;7.03;;;;;;;17.29;31.58;97601.28;5040879;28;20788;-59
2022/04/19 12:09:18;;;;;;;9.95;6.82;;;;;;;17.26;32.10;97592.00;5047417;28;20036;-60
2022/04/19 12:11:45;;;;;;;10.60;6.63;;;;;;;17.40;31.63;97595.34;5060574;28;20036;-59
2022/04/19 12:14:10;;;;;;;14.38;7.13;;;;;;;17.40;31.21;97592.72;5061600;28;20025;-62
2022/04/19 12:16:37;;;;;;;11.10;7.30;;;;;;;17.39;31.31;97592.94;5059226;28;20040;-61
2022/04/19 12:19:10;;;;;;;13.63;6.75;;;;;;;17.51;31.75;97585.97;5061570;28;20105;-60
2022/04/19 12:21:46;;;;;;;14.82;6.38;;;;;;;17.74;30.97;97592.44;5060418;28;20143;-61
2022/04/19 12:24:28;;;;;;;13.55;6.85;;;;;;;17.78;31.03;97591.00;5042624;28;20028;-62
2022/04/19 12:27:03;;;;;;;11.50;6.85;;;;;;;17.81;30.51;97583.47;5055672;28;20501;-59
2022/04/19 12:29:29;;;;;;;10.98;6.60;;;;;;;17.73;30.82;97565.38;5063771;28;20071;-60
2022/04/19 12:32:00;;;;;;;11.00;7.10;;;;;;;17.76;31.23;97579.91;5064271;28;20625;-59
2022/04/19 12:34:33;;;;;;;13.07;7.18;;;;;;;17.88;30.62;97577.41;5060042;28;20044;-62
2022/04/19 12:37:05;;;;;;;12.48;6.72;;;;;;;17.93;30.42;97561.78;5059962;28;20032;-59
2022/04/19 12:39:31;;;;;;;11.25;6.97;;;;;;;17.96;30.62;97570.06;5060875;28;20045;-60
2022/04/19 12:42:08;;;;;;;10.32;6.85;;;;;;;18.01;30.28;97564.91;5058364;28;20025;-61
2022/04/19 12:44:35;;;;;;;12.20;7.20;;;;;;;18.03;30.34;97562.06;5060449;28;20037;-60
2022/04/19 12:47:04;;;;;;;14.68;7.50;;;;;;;18.07;30.25;97565.91;5054299;28;20032;-60
2022/04/19 12:49:31;;;;;;;11.45;7.15;;;;;;;18.03;29.94;97552.38;5059029;28;20025;-60
2022/04/19 12:52:07;;;;;;;15.10;7.20;;;;;;;18.15;30.20;97549.00;5060746;28;20029;-59
2022/04/19 12:54:35;;;;;;;11.02;7.20;;;;;;;18.28;29.69;97548.06;5059082;28;20525;-60
2022/04/19 12:57:04;;;;;;;10.38;6.53;;;;;;;18.17;29.55;97515.41;5055544;28;20036;-62
2022/04/19 12:59:32;;;;;;;9.23;5.72;;;;;;;18.55;29.41;97544.09;5041753;28;20032;-62
2022/04/19 13:01:58;;;;;;;10.45;6.18;;;;;;;18.57;29.29;97544.66;5063848;28;20571;-60
2022/04/19 13:04:24;;;;;;;10.45;6.57;;;;;;;18.54;29.58;97531.13;5041864;28;20231;-62
2022/04/19 13:12:24;;;;;;;11.73;6.50;;;;;;;18.52;29.55;97517.41;5059019;28;20044;-61
2022/04/19 13:14:53;;;;;;;8.98;6.15;;;;;;;18.40;28.94;97483.94;5059996;28;20033;-60
2022/04/19 13:17:19;;;;;;;10.02;6.40;;;;;;;18.57;28.87;97513.06;5058727;28;20025;-60
2022/04/19 13:19:45;;;;;;;12.57;6.85;;;;;;;18.51;29.11;97507.88;5059684;28;20055;-60
2022/04/19 13:22:11;;;;;;;13.85;6.82;;;;;;;18.41;29.45;97484.75;5060456;28;20060;-62
2022/04/19 13:24:38;;;;;;;41.05;10.40;;;;;;;18.70;29.09;97514.72;5059383;28;20045;-61
2022/04/19 13:27:04;;;;;;;10.50;5.82;;;;;;;18.74;28.71;97502.72;5060189;28;20024;-59
2022/04/19 13:29:30;;;;;;;9.65;6.63;;;;;;;18.80;28.63;97501.84;5052627;28;20021;-60
2022/04/19 13:31:55;;;;;;;13.20;6.50;;;;;;;18.44;28.14;97448.25;5063125;28;20025;-60
2022/04/19 13:34:22;;;;;;;11.23;6.22;;;;;;;18.94;28.09;97499.81;5058048;28;20021;-61
2022/04/19 13:36:48;;;;;;;14.18;6.07;;;;;;;18.99;28.52;97492.06;5058314;28;20024;-59
2022/04/19 13:39:13;;;;;;;11.23;6.25;;;;;;;18.99;26.96;97489.41;5043369;28;20475;-60
2022/04/19 13:41:41;;;;;;;9.43;6.32;;;;;;;19.11;28.05;97489.47;5058885;28;20048;-61
2022/04/19 13:44:10;;;;;;;10.70;6.25;;;;;;;19.04;27.44;97451.06;5059947;28;20077;-61
2022/04/19 13:46:36;;;;;;;11.43;7.00;;;;;;;19.27;27.55;97477.44;5042312;28;20604;-61
2022/04/19 13:49:02;;;;;;;11.35;6.63;;;;;;;18.93;27.75;97405.22;5060232;28;20089;-61
2022/04/19 13:51:28;;;;;;;10.70;5.85;;;;;;;19.37;27.50;97469.75;5055581;28;20028;-60
2022/04/19 13:53:54;;;;;;;9.93;6.70;;;;;;;19.40;27.45;97457.94;5045103;28;20035;-59
2022/04/19 13:56:20;;;;;;;12.95;6.13;;;;;;;19.52;27.51;97473.78;5063375;28;20035;-59
2022/04/19 13:58:45;;;;;;;11.88;7.13;;;;;;;19.34;26.96;97435.94;5064263;28;20036;-59
2022/04/19 14:01:10;;;;;;;11.30;6.85;;;;;;;19.55;27.14;97474.13;5058268;28;20029;-62
2022/04/19 14:03:36;;;;;;;9.73;6.78;;;;;;;19.42;27.01;97463.00;5052072;28;20033;-61
2022/04/19 14:06:01;;;;;;;15.38;7.20;;;;;;;19.43;27.43;97460.13;5062498;28;20032;-63
2022/04/19 14:08:27;;;;;;;9.88;6.82;;;;;;;19.43;27.50;97464.63;5061975;28;20032;-60
2022/04/19 14:10:53;;;;;;;12.45;6.95;;;;;;;19.30;27.26;97428.75;5065155;28;20025;-61
2022/04/19 14:13:18;;;;;;;12.80;7.10;;;;;;;19.42;27.33;97453.25;5044999;28;20036;-60
2022/04/19 14:15:44;;;;;;;13.60;6.78;;;;;;;19.56;27.30;97469.66;5041602;28;20531;-60
2022/04/19 14:18:10;;;;;;;11.88;7.03;;;;;;;19.52;27.21;97450.84;5063624;28;20039;-60
2022/04/19 14:20:35;;;;;;;10.18;7.15;;;;;;;19.48;26.84;97443.66;5062686;28;20036;-62
2022/04/19 14:23:01;;;;;;;12.20;6.20;;;;;;;19.49;28.18;97450.50;5064034;28;20418;-60
2022/04/19 14:25:26;;;;;;;12.95;7.05;;;;;;;19.44;28.38;97445.13;5061318;28;20472;-59
2022/04/19 14:27:52;;;;;;;16.13;7.10;;;;;;;19.48;28.08;97447.06;5046079;28;20024;-61
2022/04/19 14:33:16;;;;;;;12.00;7.10;;;;;;;19.59;28.04;97448.91;5058291;28;20335;-60
2022/04/19 14:35:43;;;;;;;12.50;7.15;;;;;;;19.42;27.34;97411.06;5062361;28;20035;-62
2022/04/19 14:38:08;;;;;;;10.60;6.60;;;;;;;19.62;28.25;97446.81;5044719;28;20032;-60
2022/04/19 14:40:34;;;;;;;12.05;7.28;;;;;;;19.67;27.42;97439.81;5068522;28;20024;-59
2022/04/19 14:42:59;;;;;;;12.70;6.15;;;;;;;19.77;28.10;97448.00;5048212;28;20117;-59
2022/04/19 14:45:24;;;;;;;12.05;6.45;;;;;;;19.55;27.80;97407.41;5062550;28;20025;-59
2022/04/19 14:47:50;;;;;;;12.38;6.47;;;;;;;19.59;27.28;97398.00;5060323;28;20033;-61
2022/04/19 14:50:16;;;;;;;10.57;6.65;;;;;;;19.70;26.61;97397.19;5058242;28;20373;-60
2022/04/19 14:52:42;;;;;;;15.52;5.88;;;;;;;19.89;27.44;97423.41;5062176;28;20085;-61
2022/04/19 14:55:07;;;;;;;10.45;5.70;;;;;;;19.91;27.36;97430.06;5055710;28;20028;-60
2022/04/19 14:57:33;;;;;;;15.43;6.07;;;;;;;19.91;26.05;97418.72;5061502;28;20032;-61
2022/04/19 14:59:59;;;;;;;11.55;6.00;;;;;;;19.82;26.34;97430.66;4986388;28;21750;-62
2022/04/19 15:02:25;;;;;;;9.50;5.63;;;;;;;19.86;27.67;97431.78;5043892;28;20025;-60
2022/04/19 15:04:51;;;;;;;9.95;5.35;;;;;;;19.95;27.92;97430.38;5053638;28;20036;-62
2022/04/19 15:07:16;;;;;;;10.52;6.50;;;;;;;19.94;26.63;97428.81;5065193;28;20036;-60
2022/04/19 15:09:42;;;;;;;13.45;5.90;;;;;;;20.00;27.97;97422.56;5062491;28;20028;-60
2022/04/19 15:12:09;;;;;;;9.95;5.93;;;;;;;20.09;27.42;97426.44;5069792;28;20018;-60
2022/04/19 15:14:35;;;;;;;15.43;6.10;;;;;;;20.17;27.50;97412.09;5062988;28;20024;-59
2022/04/19 15:17:01;;;;;;;9.57;5.88;;;;;;;20.27;27.24;97416.75;5060036;28;20032;-61
2022/04/19 15:19:27;;;;;;;20.48;6.65;;;;;;;20.15;27.45;97387.75;5063323;28;20031;-60
2022/04/19 15:21:53;;;;;;;12.18;5.57;;;;;;;20.35;27.28;97409.25;5045496;28;20403;-60
2022/04/19 15:24:19;;;;;;;12.88;5.80;;;;;;;20.36;27.75;97408.22;5056996;28;20029;-60
2022/04/19 15:26:47;;;;;;;13.70;6.38;;;;;;;20.32;26.75;97404.44;5044025;28;20021;-60
2022/04/19 15:29:13;;;;;;;15.52;6.05;;;;;;;20.32;27.38;97404.44;5060353;28;20387;-60
2022/04/19 15:31:39;;;;;;;12.48;6.10;;;;;;;19.96;26.91;97361.56;5062020;28;20163;-61
2022/04/19 15:34:04;;;;;;;8.80;5.40;;;;;;;20.06;26.70;97394.44;5060926;28;20107;-60
2022/04/19 15:36:33;;;;;;;12.00;5.60;;;;;;;19.91;27.13;97405.53;5071754;28;20501;-61
2022/04/19 15:38:59;;;;;;;10.65;5.45;;;;;;;19.69;27.48;97407.94;5046193;28;20097;-62
2022/04/19 15:41:25;;;;;;;13.20;4.85;;;;;;;19.53;27.75;97406.81;5048799;28;20016;-60
2022/04/19 15:43:51;;;;;;;9.18;4.80;;;;;;;19.40;27.42;97407.88;5060849;28;20463;-61
2022/04/19 15:46:17;;;;;;;7.47;4.75;;;;;;;19.27;28.11;97405.47;5074157;28;20085;-60
2022/04/19 15:48:42;;;;;;;8.75;4.50;;;;;;;19.18;28.11;97405.84;5061380;28;20479;-60
2022/04/19 15:51:08;;;;;;;10.88;5.55;;;;;;;19.13;28.53;97418.06;5061057;28;20115;-60
2022/04/19 15:53:33;;;;;;;9.07;5.90;;;;;;;19.06;28.60;97417.41;5061433;28;20479;-60
2022/04/19 15:56:00;;;;;;;10.93;5.63;;;;;;;18.90;29.17;97419.66;5049877;28;20024;-60
2022/04/19 15:58:26;;;;;;;8.77;5.50;;;;;;;18.77;29.37;97414.59;5061118;28;20043;-62
2022/04/19 16:00:54;;;;;;;9.98;4.95;;;;;;;18.77;29.36;97410.13;5037926;28;20025;-59
2022/04/19 16:03:19;;;;;;;8.60;5.45;;;;;;;18.72;30.04;97419.72;5061125;28;20101;-61
2022/04/19 16:05:44;;;;;;;10.27;5.53;;;;;;;18.70;29.70;97417.31;5043940;28;20669;-60
2022/04/19 16:08:10;;;;;;;11.40;5.80;;;;;;;18.46;29.52;97379.63;5054740;28;20489;-59
2022/04/19 16:10:35;;;;;;;9.73;5.43;;;;;;;18.60;30.02;97411.78;5062034;28;20082;-62
2022/04/19 16:13:01;;;;;;;9.60;5.85;;;;;;;18.51;30.06;97407.88;5043978;28;20126;-61
2022/04/19 16:15:27;;;;;;;10.57;6.15;;;;;;;18.52;30.13;97401.59;5059604;28;20033;-61
2022/04/19 16:23:22;;;;;;;8.73;5.60;;;;;;;18.28;30.46;97406.78;5061483;28;20562;-60
2022/04/19 16:25:47;;;;;;;9.82;5.05;;;;;;;17.86;30.40;97333.88;5042960;28;20033;-60
2022/04/19 16:28:13;;;;;;;9.68;4.95;;;;;;;18.29;30.93;97413.66;5061286;28;20028;-59
2022/04/19 16:30:38;;;;;;;9.68;5.07;;;;;;;18.33;30.71;97408.75;5060127;28;20028;-62
2022/04/19 16:33:05;;;;;;;9.63;4.40;;;;;;;18.33;31.16;97398.22;5044773;28;20020;-62
2022/04/19 16:35:32;;;;;;;15.07;5.38;;;;;;;18.36;30.20;97398.59;5060798;28;20024;-60
2022/04/19 16:37:57;;;;;;;8.75;5.28;;;;;;;18.26;30.57;97393.06;5058615;28;20445;-61
2022/04/19 16:40:23;;;;;;;8.23;4.88;;;;;;;18.16;31.16;97401.50;5040641;28;20024;-59
2022/04/19 16:42:48;;;;;;;8.07;4.40;;;;;;;18.10;31.07;97402.38;5043829;28;20025;-60
2022/04/19 16:45:15;;;;;;;7.50;4.30;;;;;;;18.15;31.45;97399.06;5060617;28;20031;-57
2022/04/19 16:47:44;;;;;;;7.10;4.00;;;;;;;18.04;32.48;97404.06;5057284;28;20055;-59
2022/04/19 16:50:09;;;;;;;10.77;4.17;;;;;;;17.98;33.51;97404.94;5061272;28;20024;-60
2022/04/19 16:52:35;;;;;;;8.10;3.67;;;;;;;17.92;33.73;97408.44;5059745;28;20031;-59
2022/04/19 16:55:01;;;;;;;7.32;3.70;;;;;;;17.98;33.82;97412.03;5059013;28;20028;-60
2022/04/19 16:57:26;;;;;;;9.50;4.13;;;;;;;17.83;34.47;97407.94;5043118;28;20032;-60
2022/04/19 16:59:52;;;;;;;8.43;3.92;;;;;;;17.73;34.84;97410.28;5056182;28;20032;-62
